Terminal Aerodrome Forecast
Issued by NWS Paducah, KY

Home | Current Version | Previous Version | Text Only | Print | Product List | Glossary Off
Versions: 1 2 3 4 5 6 7 8 9 10 11 12 13

000
FTUS43 KPAH 112300
TAFPAH
TAF
KPAH 112330Z 1200/1224 VRB03KT P6SM SCT050 SCT250
      TEMPO 1209/1212 5SM BR
     FM121400 22006KT P6SM SCT050 BKN120=

USA.gov is the U.S. government's official web portal to all federal, state and local government web resources and services.